Time;durP1;ratioP1;P1;durP2;ratioP2;P2;SDS_P1;SDS_P2;PMS_P1;PMS_P2;Temp;Humidity;BMP_temperature;BMP_pressure;BME280_temperature;BME280_humidity;BME280_pressure;Samples;Min_cycle;Max_cycle;Signal;HPM_P1;HPM_P2
2023/05/08 00:00:29;;;;;;;4.78;3.42;;;;;;;;;;5057088;28;20738;-74
2023/05/08 00:02:55;;;;;;;4.88;3.45;;;;;;;;;;5039412;28;20388;-74
2023/05/08 00:05:20;;;;;;;4.85;3.55;;;;;;;;;;5056782;28;20068;-76
2023/05/08 00:07:45;;;;;;;4.47;3.47;;;;;;;;;;5039633;28;20021;-76
2023/05/08 00:10:11;;;;;;;5.60;3.70;;;;;;;;;;5057211;28;20020;-76
2023/05/08 00:12:36;;;;;;;7.43;3.55;;;;;;;;;;5038498;28;20147;-75
2023/05/08 00:15:03;;;;;;;7.93;3.75;;;;;;;;;;5056018;28;20033;-76
2023/05/08 00:17:28;;;;;;;5.65;3.65;;;;;;;;;;5055119;28;20025;-76
2023/05/08 00:19:54;;;;;;;6.20;3.77;;;;;;;;;;5055316;28;20078;-76
2023/05/08 00:22:19;;;;;;;5.85;3.63;;;;;;;;;;5038964;28;20254;-76
2023/05/08 00:24:45;;;;;;;5.82;3.80;;;;;;;;;;5056979;28;20094;-76
2023/05/08 00:27:10;;;;;;;5.68;3.75;;;;;;;;;;5056912;28;20419;-76
2023/05/08 00:29:35;;;;;;;5.93;3.22;;;;;;;;;;5056753;28;20045;-76
2023/05/08 00:32:01;;;;;;;5.45;3.80;;;;;;;;;;5039239;28;20025;-75
2023/05/08 00:34:26;;;;;;;8.73;3.65;;;;;;;;;;5056224;28;20480;-75
2023/05/08 00:36:54;;;;;;;6.85;3.58;;;;;;;;;;5056644;28;20527;-75
2023/05/08 00:39:20;;;;;;;4.65;3.45;;;;;;;;;;5055975;28;20040;-75
2023/05/08 00:41:45;;;;;;;5.23;3.60;;;;;;;;;;5038735;28;20028;-76
2023/05/08 00:44:10;;;;;;;5.63;3.60;;;;;;;;;;5056571;28;20265;-75
2023/05/08 00:46:35;;;;;;;7.80;3.70;;;;;;;;;;5056661;28;20274;-76
2023/05/08 00:49:03;;;;;;;4.65;3.53;;;;;;;;;;5055967;28;20272;-77
2023/05/08 00:51:30;;;;;;;5.22;3.42;;;;;;;;;;5037951;28;20029;-76
2023/05/08 00:53:56;;;;;;;4.75;3.45;;;;;;;;;;5056252;28;20093;-74
2023/05/08 00:56:22;;;;;;;4.63;3.65;;;;;;;;;;5056918;28;20021;-74
2023/05/08 00:58:48;;;;;;;6.07;3.67;;;;;;;;;;5038572;28;20033;-74
2023/05/08 01:01:14;;;;;;;5.47;3.53;;;;;;;;;;5056036;28;20029;-75
2023/05/08 01:03:40;;;;;;;6.28;3.75;;;;;;;;;;5038660;28;20484;-75
2023/05/08 01:06:05;;;;;;;5.03;3.63;;;;;;;;;;5056318;28;20047;-74
2023/05/08 01:08:31;;;;;;;6.25;3.78;;;;;;;;;;5055987;28;20044;-74
2023/05/08 01:11:16;;;;;;;6.05;4.00;;;;;;;;;;5056256;28;20032;-73
2023/05/08 01:14:02;;;;;;;5.63;3.53;;;;;;;;;;5056872;28;20029;-75
2023/05/08 01:16:47;;;;;;;5.25;3.65;;;;;;;;;;5056566;28;20115;-75
2023/05/08 01:19:35;;;;;;;4.78;3.72;;;;;;;;;;5056080;28;20067;-75
2023/05/08 01:22:42;;;;;;;5.60;4.07;;;;;;;;;;5056500;28;20029;-73
2023/05/08 01:25:23;;;;;;;4.45;3.53;;;;;;;;;;5056342;28;20063;-75
2023/05/08 01:28:16;;;;;;;4.97;3.92;;;;;;;;;;5055452;28;20032;-75
2023/05/08 01:31:06;;;;;;;5.47;3.70;;;;;;;;;;5055742;28;20392;-75
2023/05/08 01:33:42;;;;;;;5.18;3.67;;;;;;;;;;5055738;28;20024;-75
2023/05/08 01:36:31;;;;;;;5.57;3.70;;;;;;;;;;5056574;28;20175;-75
2023/05/08 01:39:08;;;;;;;6.47;3.80;;;;;;;;;;5055739;28;20040;-74
2023/05/08 01:41:36;;;;;;;6.93;3.90;;;;;;;;;;5038221;28;20029;-76
2023/05/08 01:44:18;;;;;;;5.95;3.92;;;;;;;;;;5056072;28;20028;-76
2023/05/08 01:46:48;;;;;;;4.45;3.50;;;;;;;;;;5056328;28;20032;-75
2023/05/08 01:49:28;;;;;;;5.43;3.97;;;;;;;;;;5055978;28;20027;-75
2023/05/08 01:52:02;;;;;;;7.05;3.88;;;;;;;;;;5056012;28;20081;-75
2023/05/08 01:54:32;;;;;;;5.38;3.63;;;;;;;;;;5056252;28;20025;-75
2023/05/08 01:56:59;;;;;;;7.43;3.92;;;;;;;;;;5055991;28;20064;-74
2023/05/08 01:59:27;;;;;;;4.90;3.92;;;;;;;;;;5055532;28;20040;-75
2023/05/08 02:01:55;;;;;;;6.55;4.07;;;;;;;;;;5037902;28;20049;-73
2023/05/08 02:04:22;;;;;;;5.45;3.75;;;;;;;;;;5038157;28;20029;-75
2023/05/08 02:06:49;;;;;;;6.07;3.92;;;;;;;;;;5055099;28;20033;-74
2023/05/08 02:09:15;;;;;;;6.57;3.90;;;;;;;;;;5055219;28;20480;-74
2023/05/08 02:11:42;;;;;;;5.57;4.10;;;;;;;;;;5038270;28;20059;-74
2023/05/08 02:14:10;;;;;;;4.95;3.90;;;;;;;;;;5037279;28;20503;-75
2023/05/08 02:16:37;;;;;;;6.97;4.13;;;;;;;;;;5055884;28;20024;-75
2023/05/08 02:19:04;;;;;;;5.68;3.90;;;;;;;;;;5055071;28;20060;-75
2023/05/08 02:21:30;;;;;;;5.80;4.15;;;;;;;;;;5055369;28;20432;-72
2023/05/08 02:23:56;;;;;;;6.72;4.00;;;;;;;;;;5055810;28;20075;-72
2023/05/08 02:26:24;;;;;;;5.90;4.22;;;;;;;;;;5056279;28;20043;-76
2023/05/08 02:28:53;;;;;;;5.05;4.03;;;;;;;;;;5056404;28;20067;-75
2023/05/08 02:31:19;;;;;;;6.25;4.22;;;;;;;;;;5038506;28;20121;-74
2023/05/08 02:33:46;;;;;;;6.10;4.18;;;;;;;;;;5055438;28;20108;-75
2023/05/08 02:36:14;;;;;;;6.25;3.88;;;;;;;;;;5055839;28;20027;-74
2023/05/08 02:38:42;;;;;;;6.38;4.20;;;;;;;;;;5055777;28;20031;-75
2023/05/08 02:41:09;;;;;;;5.93;4.32;;;;;;;;;;5037069;28;20041;-74
2023/05/08 02:43:35;;;;;;;5.72;4.22;;;;;;;;;;5058021;28;20446;-73
2023/05/08 02:46:09;;;;;;;6.22;4.35;;;;;;;;;;5058725;28;20025;-75
2023/05/08 02:48:46;;;;;;;6.13;3.75;;;;;;;;;;5041511;28;20391;-75
2023/05/08 02:51:33;;;;;;;7.35;4.15;;;;;;;;;;5059182;28;20108;-74
2023/05/08 02:54:08;;;;;;;5.55;4.10;;;;;;;;;;5058561;28;20035;-74
2023/05/08 02:56:39;;;;;;;5.85;4.03;;;;;;;;;;5058943;28;20025;-74
2023/05/08 02:59:28;;;;;;;7.82;4.47;;;;;;;;;;5058672;28;20031;-73
2023/05/08 03:02:05;;;;;;;5.45;4.38;;;;;;;;;;5058346;28;20104;-75
2023/05/08 03:04:38;;;;;;;7.90;4.90;;;;;;;;;;5058054;28;20025;-75
2023/05/08 03:07:05;;;;;;;8.10;5.30;;;;;;;;;;5040235;28;20028;-75
2023/05/08 03:09:43;;;;;;;7.35;5.07;;;;;;;;;;5058753;28;20029;-74
2023/05/08 03:12:15;;;;;;;8.23;5.13;;;;;;;;;;5058825;28;20031;-75
2023/05/08 03:14:49;;;;;;;6.95;5.32;;;;;;;;;;5040857;28;20400;-75
2023/05/08 03:17:15;;;;;;;;;;;;;;;;;;5058851;28;20021;-72
2023/05/08 03:19:45;;;;;;;8.80;5.05;;;;;;;;;;5058641;28;19980;-75
2023/05/08 03:22:13;;;;;;;7.43;5.35;;;;;;;;;;5058474;28;20500;-75
2023/05/08 03:24:39;;;;;;;6.40;5.10;;;;;;;;;;5057746;28;20399;-75
2023/05/08 03:27:06;;;;;;;6.63;4.78;;;;;;;;;;5038878;28;20484;-73
2023/05/08 03:29:32;;;;;;;7.50;4.70;;;;;;;;;;5057054;28;20550;-73
2023/05/08 03:32:01;;;;;;;8.98;4.20;;;;;;;;;;5057090;28;20033;-75
2023/05/08 03:34:28;;;;;;;7.03;4.60;;;;;;;;;;5039684;28;20025;-73
2023/05/08 03:36:54;;;;;;;6.00;4.25;;;;;;;;;;5057387;28;20085;-75
2023/05/08 03:39:19;;;;;;;6.63;4.97;;;;;;;;;;5057057;28;20104;-75
2023/05/08 03:41:45;;;;;;;5.78;4.20;;;;;;;;;;5057722;28;20022;-74
2023/05/08 03:44:10;;;;;;;10.52;4.45;;;;;;;;;;5057245;28;20029;-72
2023/05/08 03:46:37;;;;;;;6.85;4.22;;;;;;;;;;5039487;28;20024;-76
2023/05/08 03:49:03;;;;;;;8.05;4.28;;;;;;;;;;5058529;28;20024;-73
2023/05/08 03:51:30;;;;;;;5.40;4.10;;;;;;;;;;5039099;28;20029;-71
2023/05/08 03:53:55;;;;;;;7.43;4.07;;;;;;;;;;5038355;28;20021;-73
2023/05/08 03:56:20;;;;;;;8.03;4.43;;;;;;;;;;5056566;28;20445;-74
2023/05/08 03:58:53;;;;;;;10.95;4.63;;;;;;;;;;5056591;28;20740;-75
2023/05/08 04:01:30;;;;;;;6.38;3.80;;;;;;;;;;5056679;28;20036;-72
2023/05/08 04:04:18;;;;;;;6.20;4.15;;;;;;;;;;5038571;28;20117;-75
2023/05/08 04:06:50;;;;;;;9.90;4.15;;;;;;;;;;5056796;28;20032;-75
2023/05/08 04:09:37;;;;;;;7.50;4.07;;;;;;;;;;5056837;28;20086;-72
2023/05/08 04:12:12;;;;;;;8.48;4.00;;;;;;;;;;5039017;28;20491;-75
2023/05/08 04:14:52;;;;;;;6.03;4.00;;;;;;;;;;5057054;28;20097;-74
2023/05/08 04:17:27;;;;;;;5.57;4.32;;;;;;;;;;5039860;28;20021;-75
2023/05/08 04:19:59;;;;;;;6.43;4.30;;;;;;;;;;5057164;28;20025;-75
2023/05/08 04:22:26;;;;;;;5.03;3.47;;;;;;;;;;5038629;28;20116;-74
2023/05/08 04:24:56;;;;;;;5.68;4.20;;;;;;;;;;5055894;28;20067;-75
2023/05/08 04:27:22;;;;;;;8.23;4.13;;;;;;;;;;5056375;28;20017;-75
2023/05/08 04:29:47;;;;;;;8.05;4.00;;;;;;;;;;5057531;28;20502;-73
2023/05/08 04:32:13;;;;;;;6.35;4.10;;;;;;;;;;5038964;28;20035;-75
2023/05/08 04:34:38;;;;;;;6.07;4.47;;;;;;;;;;5038389;28;20021;-74
2023/05/08 04:37:06;;;;;;;4.78;3.42;;;;;;;;;;5056711;28;20032;-73
2023/05/08 04:39:32;;;;;;;5.55;3.78;;;;;;;;;;5056307;28;20017;-75
2023/05/08 04:42:01;;;;;;;6.40;4.20;;;;;;;;;;5056875;28;20102;-77
2023/05/08 04:44:27;;;;;;;7.57;4.18;;;;;;;;;;5056402;28;20266;-76
2023/05/08 04:46:52;;;;;;;5.65;3.60;;;;;;;;;;5038769;28;20020;-75
2023/05/08 04:49:17;;;;;;;5.20;3.63;;;;;;;;;;5056366;28;20537;-72
2023/05/08 04:51:42;;;;;;;5.97;3.83;;;;;;;;;;5056009;28;20797;-75
2023/05/08 04:54:08;;;;;;;5.83;3.90;;;;;;;;;;5056250;28;20347;-76
2023/05/08 04:56:33;;;;;;;4.63;3.20;;;;;;;;;;5056921;28;20277;-75
2023/05/08 04:58:58;;;;;;;6.22;3.28;;;;;;;;;;5056530;28;20281;-76
2023/05/08 05:01:23;;;;;;;5.63;3.90;;;;;;;;;;5056091;28;20400;-74
2023/05/08 05:03:48;;;;;;;4.70;3.30;;;;;;;;;;5056453;28;20622;-75
2023/05/08 05:06:14;;;;;;;4.70;3.10;;;;;;;;;;5038092;28;20644;-75
2023/05/08 05:08:39;;;;;;;4.22;2.90;;;;;;;;;;5056109;28;20373;-76
2023/05/08 05:11:04;;;;;;;4.20;2.87;;;;;;;;;;5056851;28;20029;-74
2023/05/08 05:13:29;;;;;;;4.72;3.38;;;;;;;;;;5056781;28;20304;-75
2023/05/08 05:15:55;;;;;;;5.18;3.22;;;;;;;;;;5056371;28;20017;-75
2023/05/08 05:18:20;;;;;;;5.53;2.97;;;;;;;;;;5056663;28;20484;-75
2023/05/08 05:20:45;;;;;;;4.15;3.00;;;;;;;;;;5056160;28;20780;-74
2023/05/08 05:23:11;;;;;;;3.93;2.60;;;;;;;;;;5055706;28;20150;-73
2023/05/08 05:25:36;;;;;;;3.97;2.70;;;;;;;;;;5056051;28;20320;-74
2023/05/08 05:28:01;;;;;;;3.67;2.60;;;;;;;;;;5055921;28;20024;-75
2023/05/08 05:30:27;;;;;;;5.35;3.05;;;;;;;;;;5037959;28;20496;-75
2023/05/08 05:32:52;;;;;;;4.03;2.45;;;;;;;;;;5055909;28;20033;-73
2023/05/08 05:35:18;;;;;;;5.50;2.37;;;;;;;;;;5055961;28;20377;-75
2023/05/08 05:37:43;;;;;;;3.20;2.40;;;;;;;;;;5055427;28;20289;-75
2023/05/08 05:40:09;;;;;;;4.23;2.37;;;;;;;;;;5037668;28;20017;-76
2023/05/08 05:42:34;;;;;;;4.28;2.50;;;;;;;;;;5055948;28;20685;-75
2023/05/08 05:45:00;;;;;;;3.22;2.40;;;;;;;;;;5054969;28;20025;-75
2023/05/08 05:47:26;;;;;;;3.10;2.22;;;;;;;;;;5055335;28;20163;-75
2023/05/08 05:49:51;;;;;;;3.47;2.50;;;;;;;;;;5038407;28;20066;-76
2023/05/08 05:52:16;;;;;;;3.40;2.30;;;;;;;;;;5055986;28;20079;-75
2023/05/08 05:54:41;;;;;;;2.70;2.20;;;;;;;;;;5055200;28;20258;-74
2023/05/08 05:57:06;;;;;;;3.30;2.50;;;;;;;;;;5054416;28;20020;-75
2023/05/08 05:59:32;;;;;;;7.90;2.40;;;;;;;;;;5055279;28;20289;-75
2023/05/08 06:01:57;;;;;;;3.47;2.17;;;;;;;;;;5055252;28;20029;-75
2023/05/08 06:04:22;;;;;;;3.90;2.30;;;;;;;;;;5054946;28;20032;-75
2023/05/08 06:06:48;;;;;;;2.67;2.30;;;;;;;;;;5055602;28;20391;-76
2023/05/08 06:09:13;;;;;;;3.00;2.30;;;;;;;;;;5055592;28;20032;-76
2023/05/08 06:11:38;;;;;;;6.27;2.60;;;;;;;;;;5037705;28;20289;-76
2023/05/08 06:14:03;;;;;;;3.90;2.40;;;;;;;;;;5058341;28;20261;-77
2023/05/08 06:16:29;;;;;;;5.82;2.10;;;;;;;;;;5057106;28;20606;-77
2023/05/08 06:18:55;;;;;;;6.82;2.25;;;;;;;;;;5058963;28;20096;-76
2023/05/08 06:21:20;;;;;;;3.42;2.20;;;;;;;;;;5058152;28;20104;-77
2023/05/08 06:23:45;;;;;;;4.20;2.30;;;;;;;;;;5058990;28;20387;-77
2023/05/08 06:26:11;;;;;;;6.00;2.08;;;;;;;;;;5061074;28;20116;-79
2023/05/08 06:28:36;;;;;;;4.22;2.42;;;;;;;;;;5060096;28;20052;-75
2023/05/08 06:31:01;;;;;;;2.83;2.10;;;;;;;;;;5058285;28;20036;-76
2023/05/08 06:33:27;;;;;;;4.80;2.00;;;;;;;;;;5058206;28;20258;-73
2023/05/08 06:35:52;;;;;;;2.53;2.10;;;;;;;;;;5038512;28;20059;-78
2023/05/08 06:38:17;;;;;;;3.73;1.90;;;;;;;;;;5056578;28;20029;-78
2023/05/08 06:40:44;;;;;;;4.20;2.20;;;;;;;;;;5056898;28;20273;-77
2023/05/08 06:43:10;;;;;;;3.65;1.88;;;;;;;;;;5057239;28;20025;-78
2023/05/08 06:45:35;;;;;;;2.10;1.65;;;;;;;;;;5057911;28;20047;-78
2023/05/08 06:48:00;;;;;;;2.90;1.93;;;;;;;;;;5040704;28;20017;-77
2023/05/08 06:50:26;;;;;;;4.72;1.92;;;;;;;;;;5057222;28;20797;-77
2023/05/08 06:52:51;;;;;;;2.80;2.10;;;;;;;;;;5038538;28;20029;-77
2023/05/08 06:55:16;;;;;;;2.50;1.83;;;;;;;;;;5057024;28;20331;-76
2023/05/08 06:57:41;;;;;;;4.88;2.00;;;;;;;;;;5056010;28;20278;-78
2023/05/08 07:00:07;;;;;;;3.13;2.20;;;;;;;;;;5056099;28;20193;-76
2023/05/08 07:02:33;;;;;;;3.97;2.17;;;;;;;;;;5055582;28;20281;-76
2023/05/08 07:04:58;;;;;;;5.15;2.15;;;;;;;;;;5056294;28;20038;-77
2023/05/08 07:07:23;;;;;;;5.22;2.28;;;;;;;;;;5055539;28;20021;-77
2023/05/08 07:09:48;;;;;;;3.10;1.93;;;;;;;;;;5055830;28;20120;-77
2023/05/08 07:12:15;;;;;;;4.83;2.00;;;;;;;;;;5056890;28;20300;-76
2023/05/08 07:14:41;;;;;;;4.38;2.00;;;;;;;;;;5038713;28;20625;-78
2023/05/08 07:17:08;;;;;;;7.95;2.20;;;;;;;;;;5038924;28;20028;-82
2023/05/08 07:19:37;;;;;;;3.38;2.00;;;;;;;;;;5037090;28;20038;-76
2023/05/08 07:22:03;;;;;;;2.13;1.75;;;;;;;;;;5051483;28;20100;-77
2023/05/08 07:24:28;;;;;;;2.88;1.92;;;;;;;;;;5051684;28;20052;-77
2023/05/08 07:26:53;;;;;;;2.40;1.70;;;;;;;;;;5051913;28;20387;-77
2023/05/08 07:29:19;;;;;;;2.58;1.80;;;;;;;;;;5050730;28;20021;-77
2023/05/08 07:31:45;;;;;;;2.47;1.60;;;;;;;;;;5036109;28;20579;-77
2023/05/08 07:34:11;;;;;;;3.20;1.77;;;;;;;;;;5037631;28;20068;-78
2023/05/08 07:36:36;;;;;;;1.67;1.45;;;;;;;;;;5054954;28;20048;-77
2023/05/08 07:39:02;;;;;;;2.70;1.80;;;;;;;;;;5056921;28;20100;-78
2023/05/08 07:41:28;;;;;;;2.40;1.45;;;;;;;;;;5056429;28;20025;-77
2023/05/08 07:43:53;;;;;;;2.38;1.60;;;;;;;;;;5055616;28;20048;-77
2023/05/08 07:46:18;;;;;;;1.60;1.40;;;;;;;;;;5037101;28;20025;-77
2023/05/08 07:48:43;;;;;;;3.28;1.38;;;;;;;;;;5054819;28;20250;-76
2023/05/08 07:51:10;;;;;;;9.23;1.87;;;;;;;;;;5037241;28;20035;-77
2023/05/08 07:53:35;;;;;;;2.10;1.50;;;;;;;;;;5055144;28;20741;-77
2023/05/08 07:56:00;;;;;;;1.80;1.50;;;;;;;;;;5055085;28;20043;-77
2023/05/08 07:58:25;;;;;;;3.40;1.70;;;;;;;;;;5054570;28;20492;-77
2023/05/08 08:00:51;;;;;;;1.60;1.40;;;;;;;;;;5055364;28;20748;-78
2023/05/08 08:03:16;;;;;;;2.30;1.20;;;;;;;;;;5056013;28;20744;-78
2023/05/08 08:05:41;;;;;;;2.10;1.35;;;;;;;;;;5038166;28;20327;-78
2023/05/08 08:08:07;;;;;;;2.40;1.40;;;;;;;;;;5055922;28;20020;-78
2023/05/08 08:10:32;;;;;;;2.67;1.35;;;;;;;;;;5039165;28;20025;-77
2023/05/08 08:12:57;;;;;;;6.43;1.33;;;;;;;;;;5038401;28;20158;-77
2023/05/08 08:15:23;;;;;;;1.20;1.03;;;;;;;;;;5056318;28;20025;-77
2023/05/08 08:17:48;;;;;;;2.37;1.37;;;;;;;;;;5056369;28;20288;-77
2023/05/08 08:20:13;;;;;;;2.38;1.30;;;;;;;;;;5055863;28;20261;-78
2023/05/08 08:22:39;;;;;;;1.90;1.25;;;;;;;;;;5055543;28;20476;-77
2023/05/08 08:25:04;;;;;;;1.80;1.30;;;;;;;;;;5037804;28;20021;-77
2023/05/08 08:27:30;;;;;;;3.78;1.10;;;;;;;;;;5037232;28;20017;-77
2023/05/08 08:29:55;;;;;;;1.50;1.17;;;;;;;;;;5054623;28;20027;-77
2023/05/08 08:32:20;;;;;;;2.92;1.20;;;;;;;;;;5055657;28;20017;-78
2023/05/08 08:34:46;;;;;;;1.35;1.02;;;;;;;;;;5054694;28;20055;-78
2023/05/08 08:37:11;;;;;;;3.70;1.90;;;;;;;;;;5038392;28;20435;-79
2023/05/08 08:39:36;;;;;;;2.37;1.30;;;;;;;;;;5054923;28;20604;-77
2023/05/08 08:42:02;;;;;;;1.80;1.30;;;;;;;;;;5054292;28;20725;-77
2023/05/08 08:44:28;;;;;;;1.85;1.27;;;;;;;;;;5055127;28;20266;-79
2023/05/08 08:46:56;;;;;;;2.30;1.10;;;;;;;;;;5055203;28;20029;-78
2023/05/08 08:49:32;;;;;;;1.45;1.02;;;;;;;;;;5055633;28;20029;-78
2023/05/08 08:52:02;;;;;;;5.22;1.40;;;;;;;;;;5055567;28;20488;-78
2023/05/08 08:54:30;;;;;;;2.47;1.20;;;;;;;;;;5056200;28;20032;-78
2023/05/08 08:56:59;;;;;;;3.78;1.10;;;;;;;;;;5055574;28;20078;-77
2023/05/08 08:59:26;;;;;;;1.80;1.10;;;;;;;;;;5056268;28;20039;-77
2023/05/08 09:01:55;;;;;;;1.17;1.08;;;;;;;;;;5054482;28;20037;-78
2023/05/08 09:04:20;;;;;;;2.20;1.20;;;;;;;;;;5054387;28;20096;-77
2023/05/08 09:06:48;;;;;;;1.35;1.10;;;;;;;;;;5054743;28;20055;-77
2023/05/08 09:09:13;;;;;;;2.78;1.33;;;;;;;;;;5054556;28;20037;-77
2023/05/08 09:11:40;;;;;;;1.98;1.25;;;;;;;;;;5054040;28;20025;-77
2023/05/08 09:14:06;;;;;;;1.55;1.20;;;;;;;;;;5036216;28;20400;-77
2023/05/08 09:16:31;;;;;;;1.38;1.13;;;;;;;;;;5054050;28;20025;-77
2023/05/08 09:18:56;;;;;;;1.42;1.20;;;;;;;;;;5036518;28;20017;-78
2023/05/08 09:21:23;;;;;;;1.67;1.10;;;;;;;;;;5054576;28;20052;-79
2023/05/08 09:23:59;;;;;;;1.48;1.02;;;;;;;;;;5053758;28;20035;-79
2023/05/08 09:26:31;;;;;;;2.65;1.00;;;;;;;;;;5053860;28;20079;-78
2023/05/08 09:29:12;;;;;;;1.33;1.13;;;;;;;;;;5035868;28;20013;-78
2023/05/08 09:31:40;;;;;;;2.55;1.10;;;;;;;;;;5036288;28;20029;-77
2023/05/08 09:34:07;;;;;;;1.85;1.20;;;;;;;;;;5054031;28;20501;-77
2023/05/08 09:36:33;;;;;;;2.70;1.15;;;;;;;;;;5035745;28;20060;-77
2023/05/08 09:38:59;;;;;;;2.97;1.10;;;;;;;;;;5035142;28;20025;-78
2023/05/08 09:41:25;;;;;;;1.05;0.95;;;;;;;;;;5054140;28;20025;-77
2023/05/08 09:44:02;;;;;;;4.95;1.30;;;;;;;;;;5036236;28;20029;-77
2023/05/08 09:46:28;;;;;;;1.65;1.15;;;;;;;;;;5053576;28;20551;-77
2023/05/08 09:48:58;;;;;;;2.90;1.20;;;;;;;;;;5052814;28;20024;-77
2023/05/08 09:51:26;;;;;;;1.90;1.30;;;;;;;;;;5054652;28;20442;-78
2023/05/08 09:53:53;;;;;;;1.90;1.27;;;;;;;;;;5054566;28;20025;-78
2023/05/08 09:56:38;;;;;;;1.60;1.30;;;;;;;;;;5055945;28;20025;-78
2023/05/08 09:59:23;;;;;;;1.88;1.30;;;;;;;;;;5053641;28;20021;-78
2023/05/08 10:01:48;;;;;;;1.55;1.10;;;;;;;;;;5055350;28;20033;-78
2023/05/08 10:04:14;;;;;;;1.58;1.25;;;;;;;;;;5054512;28;20087;-77
2023/05/08 10:06:39;;;;;;;1.80;1.05;;;;;;;;;;5053675;28;20430;-79
2023/05/08 10:09:14;;;;;;;1.52;1.20;;;;;;;;;;5055577;28;20021;-78
2023/05/08 10:11:51;;;;;;;1.58;1.10;;;;;;;;;;5035654;28;20025;-79
2023/05/08 10:14:17;;;;;;;1.67;1.20;;;;;;;;;;5053527;28;20033;-78
2023/05/08 10:16:44;;;;;;;1.60;1.25;;;;;;;;;;5054271;28;20032;-78
2023/05/08 10:19:15;;;;;;;2.33;1.40;;;;;;;;;;5054359;28;20102;-78
2023/05/08 10:21:45;;;;;;;1.30;1.13;;;;;;;;;;5054676;28;20071;-77
2023/05/08 10:24:14;;;;;;;2.20;1.30;;;;;;;;;;5034998;28;20024;-77
2023/05/08 10:26:42;;;;;;;2.53;1.55;;;;;;;;;;5055727;28;20017;-78
2023/05/08 10:29:14;;;;;;;2.03;1.38;;;;;;;;;;5053038;28;20025;-78
2023/05/08 10:31:42;;;;;;;2.20;1.40;;;;;;;;;;5035419;28;20025;-78
2023/05/08 10:34:13;;;;;;;2.30;1.38;;;;;;;;;;5054861;28;20025;-77
2023/05/08 10:36:39;;;;;;;4.18;1.50;;;;;;;;;;5052995;28;20028;-78
2023/05/08 10:39:04;;;;;;;1.60;1.30;;;;;;;;;;5037526;28;20067;-78
2023/05/08 10:41:30;;;;;;;2.25;1.48;;;;;;;;;;5038076;28;20025;-78
2023/05/08 10:43:58;;;;;;;2.05;1.33;;;;;;;;;;5055396;28;20384;-78
2023/05/08 10:46:32;;;;;;;1.48;1.27;;;;;;;;;;5053559;28;20111;-76
2023/05/08 10:49:36;;;;;;;1.92;1.30;;;;;;;;;;5054059;28;20070;-78
2023/05/08 10:52:28;;;;;;;2.53;1.40;;;;;;;;;;5034702;28;20412;-77
2023/05/08 10:54:57;;;;;;;2.58;1.30;;;;;;;;;;5053457;28;20085;-78
2023/05/08 10:57:23;;;;;;;1.77;1.30;;;;;;;;;;5036921;28;20024;-78
2023/05/08 10:59:48;;;;;;;1.92;1.55;;;;;;;;;;5052553;28;20040;-77
2023/05/08 11:02:14;;;;;;;2.33;1.33;;;;;;;;;;5054458;28;20100;-78
2023/05/08 11:04:39;;;;;;;4.07;1.42;;;;;;;;;;5056177;28;20369;-78
2023/05/08 11:07:05;;;;;;;2.28;1.33;;;;;;;;;;5055733;28;20075;-79
2023/05/08 11:09:46;;;;;;;1.90;1.30;;;;;;;;;;5056322;28;20025;-78
2023/05/08 11:12:27;;;;;;;2.05;1.33;;;;;;;;;;5038344;28;20021;-79
2023/05/08 11:15:10;;;;;;;1.75;1.30;;;;;;;;;;5057806;28;20033;-77
2023/05/08 11:17:38;;;;;;;3.63;1.17;;;;;;;;;;5058366;28;20027;-77
2023/05/08 11:20:05;;;;;;;1.83;1.17;;;;;;;;;;5058359;28;20048;-78
2023/05/08 11:22:32;;;;;;;2.17;1.10;;;;;;;;;;5058727;28;20078;-78
2023/05/08 11:25:00;;;;;;;2.05;1.15;;;;;;;;;;5058793;28;20035;-78
2023/05/08 11:27:32;;;;;;;2.22;1.50;;;;;;;;;;5038465;28;20028;-78
2023/05/08 11:30:17;;;;;;;1.33;1.17;;;;;;;;;;5055519;28;20020;-77
2023/05/08 11:33:13;;;;;;;2.08;1.30;;;;;;;;;;5039156;28;20029;-78
2023/05/08 11:36:17;;;;;;;4.53;1.00;;;;;;;;;;5057980;28;20021;-77
2023/05/08 11:39:03;;;;;;;5.25;1.30;;;;;;;;;;5055352;28;20021;-77
2023/05/08 11:41:28;;;;;;;2.90;1.30;;;;;;;;;;5039918;28;20491;-77
2023/05/08 11:44:00;;;;;;;5.20;1.37;;;;;;;;;;5058730;28;20036;-77
2023/05/08 11:46:36;;;;;;;3.55;1.30;;;;;;;;;;5057901;28;20254;-78
2023/05/08 11:49:02;;;;;;;2.60;1.27;;;;;;;;;;5056923;28;20021;-77
2023/05/08 11:51:31;;;;;;;1.70;1.30;;;;;;;;;;5055327;28;20047;-77
2023/05/08 11:53:57;;;;;;;3.13;1.35;;;;;;;;;;5039556;28;20024;-78
2023/05/08 11:56:23;;;;;;;2.55;1.30;;;;;;;;;;5057085;28;20029;-78
2023/05/08 11:59:00;;;;;;;2.03;1.27;;;;;;;;;;5056069;28;20040;-78
2023/05/08 12:01:25;;;;;;;1.50;1.30;;;;;;;;;;5056079;28;20110;-77
2023/05/08 12:04:02;;;;;;;2.23;1.50;;;;;;;;;;5055775;28;20021;-76
2023/05/08 12:06:30;;;;;;;1.95;1.45;;;;;;;;;;5055882;28;20258;-77
2023/05/08 12:08:56;;;;;;;1.95;1.50;;;;;;;;;;5056104;28;20021;-78
2023/05/08 12:11:23;;;;;;;1.88;1.30;;;;;;;;;;5056657;28;20020;-78
2023/05/08 12:13:50;;;;;;;4.85;1.63;;;;;;;;;;5039447;28;20025;-78
2023/05/08 12:16:15;;;;;;;1.27;1.17;;;;;;;;;;5056352;28;20039;-78
2023/05/08 12:18:42;;;;;;;3.40;1.13;;;;;;;;;;5055968;28;20093;-78
2023/05/08 12:21:10;;;;;;;3.45;1.48;;;;;;;;;;5056784;28;20070;-78
2023/05/08 12:23:35;;;;;;;2.10;1.33;;;;;;;;;;5056205;28;20032;-78
2023/05/08 12:26:01;;;;;;;2.75;1.40;;;;;;;;;;5056166;28;20028;-78
2023/05/08 12:28:26;;;;;;;2.45;1.42;;;;;;;;;;5056071;28;20028;-78
2023/05/08 12:30:52;;;;;;;3.90;1.30;;;;;;;;;;5056650;28;20025;-79
2023/05/08 12:33:18;;;;;;;1.35;1.10;;;;;;;;;;5056502;28;20106;-77
2023/05/08 12:35:44;;;;;;;1.35;0.90;;;;;;;;;;5055438;28;20051;-78
2023/05/08 12:38:10;;;;;;;1.70;1.05;;;;;;;;;;5055988;28;20431;-77
2023/05/08 12:40:41;;;;;;;4.40;1.20;;;;;;;;;;5056041;28;20104;-78
2023/05/08 12:43:07;;;;;;;1.85;1.17;;;;;;;;;;5055339;28;20104;-76
2023/05/08 12:45:35;;;;;;;3.33;1.10;;;;;;;;;;5055639;28;20060;-77
2023/05/08 12:48:05;;;;;;;4.45;1.00;;;;;;;;;;5055216;28;20021;-77
2023/05/08 12:50:35;;;;;;;3.42;1.15;;;;;;;;;;5036782;28;20028;-77
2023/05/08 12:53:05;;;;;;;3.80;1.20;;;;;;;;;;5035994;28;20064;-77
2023/05/08 12:55:32;;;;;;;1.65;0.90;;;;;;;;;;5036073;28;20116;-77
2023/05/08 12:58:06;;;;;;;1.65;1.20;;;;;;;;;;5055105;28;20025;-77
2023/05/08 13:00:40;;;;;;;1.75;1.15;;;;;;;;;;5056260;28;20029;-78
2023/05/08 13:03:06;;;;;;;2.30;1.50;;;;;;;;;;5039291;28;20021;-78
2023/05/08 13:05:34;;;;;;;1.98;1.25;;;;;;;;;;5055538;28;20037;-77
2023/05/08 13:08:01;;;;;;;2.10;1.02;;;;;;;;;;5054164;28;20023;-78
2023/05/08 13:10:49;;;;;;;2.00;1.33;;;;;;;;;;5056780;28;20084;-78
2023/05/08 13:13:16;;;;;;;2.67;1.20;;;;;;;;;;5057255;28;20036;-78
2023/05/08 13:15:41;;;;;;;6.40;1.35;;;;;;;;;;5038912;28;20475;-78
2023/05/08 13:18:07;;;;;;;2.10;1.00;;;;;;;;;;5055867;28;20060;-78
2023/05/08 13:20:33;;;;;;;1.30;0.93;;;;;;;;;;5037842;28;20044;-78
2023/05/08 13:22:59;;;;;;;1.33;0.90;;;;;;;;;;5038428;28;20025;-78
2023/05/08 13:25:24;;;;;;;1.27;1.00;;;;;;;;;;5055612;28;20032;-77
2023/05/08 13:27:49;;;;;;;3.07;1.60;;;;;;;;;;5036538;28;20308;-78
2023/05/08 13:30:15;;;;;;;2.03;1.20;;;;;;;;;;5055848;28;20261;-77
2023/05/08 13:32:40;;;;;;;3.42;1.50;;;;;;;;;;5055272;28;20044;-78
2023/05/08 13:35:06;;;;;;;2.97;1.57;;;;;;;;;;5053365;28;20028;-77
2023/05/08 13:37:31;;;;;;;2.50;1.50;;;;;;;;;;5052967;28;20293;-76
2023/05/08 13:39:57;;;;;;;1.80;1.17;;;;;;;;;;5057032;28;20044;-78
2023/05/08 13:42:22;;;;;;;2.23;1.60;;;;;;;;;;5056285;28;20029;-78
2023/05/08 13:44:47;;;;;;;3.30;1.70;;;;;;;;;;5056466;28;20257;-77
2023/05/08 13:47:12;;;;;;;2.60;1.53;;;;;;;;;;5057296;28;20266;-78
2023/05/08 13:49:38;;;;;;;2.07;1.43;;;;;;;;;;5056341;28;20297;-76
2023/05/08 13:52:03;;;;;;;5.20;1.70;;;;;;;;;;5055360;28;20301;-77
2023/05/08 13:54:28;;;;;;;4.22;1.58;;;;;;;;;;5053312;28;20020;-76
2023/05/08 13:56:54;;;;;;;1.55;1.45;;;;;;;;;;5056558;28;20024;-78
2023/05/08 13:59:19;;;;;;;4.35;1.50;;;;;;;;;;5056145;28;20392;-77
2023/05/08 14:01:44;;;;;;;2.92;1.40;;;;;;;;;;5038337;28;20419;-78
2023/05/08 14:04:09;;;;;;;2.13;1.27;;;;;;;;;;5056523;28;20087;-78
2023/05/08 14:06:34;;;;;;;3.97;1.30;;;;;;;;;;5055832;28;20265;-78
2023/05/08 14:09:00;;;;;;;1.80;1.35;;;;;;;;;;5055153;28;20266;-77
2023/05/08 14:11:26;;;;;;;2.25;1.58;;;;;;;;;;5036615;28;20025;-77
2023/05/08 14:13:51;;;;;;;1.67;1.20;;;;;;;;;;5053142;28;20028;-77
2023/05/08 14:16:16;;;;;;;2.28;1.55;;;;;;;;;;5053191;28;20044;-77
2023/05/08 14:18:41;;;;;;;2.45;1.40;;;;;;;;;;5054356;28;20025;-77
2023/05/08 14:21:07;;;;;;;4.70;1.73;;;;;;;;;;5054808;28;20021;-78
2023/05/08 14:23:33;;;;;;;3.13;1.70;;;;;;;;;;5055361;28;20029;-78
2023/05/08 14:25:59;;;;;;;2.80;1.35;;;;;;;;;;5035299;28;20319;-77
2023/05/08 14:28:25;;;;;;;2.70;1.65;;;;;;;;;;5054913;28;20021;-77
2023/05/08 14:30:50;;;;;;;2.30;1.50;;;;;;;;;;5055665;28;20460;-77
2023/05/08 14:33:15;;;;;;;1.60;1.27;;;;;;;;;;5036487;28;20491;-76
2023/05/08 14:35:42;;;;;;;2.38;1.30;;;;;;;;;;5052937;28;20780;-77
2023/05/08 14:38:10;;;;;;;2.83;1.40;;;;;;;;;;5034758;28;20462;-77
2023/05/08 14:40:36;;;;;;;8.13;1.52;;;;;;;;;;5038684;28;20029;-77
2023/05/08 14:43:01;;;;;;;3.80;1.65;;;;;;;;;;5057950;28;20025;-78
2023/05/08 14:45:26;;;;;;;3.30;1.47;;;;;;;;;;5060004;28;20035;-77
2023/05/08 14:47:51;;;;;;;2.33;1.60;;;;;;;;;;5057913;28;20339;-77
2023/05/08 14:50:17;;;;;;;3.07;1.63;;;;;;;;;;5056596;28;20349;-77